sensor_id;sensor_type;location;lat;lon;timestamp;P1;durP1;ratioP1;P2;durP2;ratioP2
43841;SDS011;29495;49.970;20.842;2023-12-20T00:01:23;14.60;;;8.02;;
43841;SDS011;29495;49.970;20.842;2023-12-20T00:03:57;16.27;;;9.13;;
43841;SDS011;29495;49.970;20.842;2023-12-20T00:06:26;15.05;;;8.15;;
43841;SDS011;29495;49.970;20.842;2023-12-20T00:09:15;14.73;;;8.57;;
43841;SDS011;29495;49.970;20.842;2023-12-20T00:11:52;16.88;;;8.43;;
43841;SDS011;29495;49.970;20.842;2023-12-20T00:14:29;15.52;;;8.27;;
43841;SDS011;29495;49.970;20.842;2023-12-20T00:17:01;17.58;;;9.30;;
43841;SDS011;29495;49.970;20.842;2023-12-20T00:26:55;16.77;;;8.65;;
43841;SDS011;29495;49.970;20.842;2023-12-20T00:29:21;13.70;;;7.70;;
43841;SDS011;29495;49.970;20.842;2023-12-20T01:03:31;14.27;;;6.60;;
43841;SDS011;29495;49.970;20.842;2023-12-20T01:11:31;13.18;;;8.00;;
43841;SDS011;29495;49.970;20.842;2023-12-20T01:13:57;13.48;;;7.07;;
43841;SDS011;29495;49.970;20.842;2023-12-20T02:11:37;11.77;;;6.43;;
43841;SDS011;29495;49.970;20.842;2023-12-20T02:14:31;11.73;;;7.45;;
43841;SDS011;29495;49.970;20.842;2023-12-20T02:18:10;10.95;;;6.20;;
43841;SDS011;29495;49.970;20.842;2023-12-20T02:57:38;10.18;;;5.60;;
43841;SDS011;29495;49.970;20.842;2023-12-20T03:04:52;10.77;;;6.35;;
43841;SDS011;29495;49.970;20.842;2023-12-20T03:08:27;9.48;;;5.72;;
43841;SDS011;29495;49.970;20.842;2023-12-20T03:10:59;9.15;;;5.45;;
43841;SDS011;29495;49.970;20.842;2023-12-20T03:13:31;10.63;;;5.68;;
43841;SDS011;29495;49.970;20.842;2023-12-20T03:16:15;9.23;;;5.53;;
43841;SDS011;29495;49.970;20.842;2023-12-20T03:21:15;8.80;;;5.03;;
43841;SDS011;29495;49.970;20.842;2023-12-20T03:23:47;9.52;;;4.68;;
43841;SDS011;29495;49.970;20.842;2023-12-20T03:26:18;9.48;;;5.68;;
43841;SDS011;29495;49.970;20.842;2023-12-20T03:28:47;9.98;;;5.28;;
43841;SDS011;29495;49.970;20.842;2023-12-20T03:31:21;9.70;;;5.78;;
43841;SDS011;29495;49.970;20.842;2023-12-20T03:33:50;9.70;;;5.90;;
43841;SDS011;29495;49.970;20.842;2023-12-20T03:36:28;10.10;;;5.47;;
43841;SDS011;29495;49.970;20.842;2023-12-20T03:39:07;8.27;;;4.85;;
43841;SDS011;29495;49.970;20.842;2023-12-20T03:41:40;8.35;;;5.13;;
43841;SDS011;29495;49.970;20.842;2023-12-20T03:44:08;10.73;;;5.63;;
43841;SDS011;29495;49.970;20.842;2023-12-20T03:46:42;8.13;;;5.28;;
43841;SDS011;29495;49.970;20.842;2023-12-20T03:49:13;24.63;;;12.07;;
43841;SDS011;29495;49.970;20.842;2023-12-20T03:51:59;22.20;;;10.77;;
43841;SDS011;29495;49.970;20.842;2023-12-20T03:54:38;16.05;;;8.77;;
43841;SDS011;29495;49.970;20.842;2023-12-20T03:57:43;10.45;;;6.38;;
43841;SDS011;29495;49.970;20.842;2023-12-20T04:00:15;12.32;;;6.88;;
43841;SDS011;29495;49.970;20.842;2023-12-20T04:03:01;14.70;;;7.60;;
43841;SDS011;29495;49.970;20.842;2023-12-20T04:05:41;11.02;;;6.95;;
43841;SDS011;29495;49.970;20.842;2023-12-20T04:12:55;14.23;;;7.97;;
43841;SDS011;29495;49.970;20.842;2023-12-20T04:16:22;12.57;;;6.90;;
43841;SDS011;29495;49.970;20.842;2023-12-20T04:19:00;8.88;;;6.18;;
43841;SDS011;29495;49.970;20.842;2023-12-20T08:46:29;18.77;;;10.23;;
43841;SDS011;29495;49.970;20.842;2023-12-20T21:00:49;7.18;;;3.70;;
43841;SDS011;29495;49.970;20.842;2023-12-20T21:03:16;9.13;;;4.55;;
43841;SDS011;29495;49.970;20.842;2023-12-20T21:05:42;7.55;;;3.67;;
43841;SDS011;29495;49.970;20.842;2023-12-20T21:08:11;6.67;;;3.47;;
43841;SDS011;29495;49.970;20.842;2023-12-20T21:10:56;6.00;;;3.30;;
43841;SDS011;29495;49.970;20.842;2023-12-20T21:13:25;5.28;;;2.78;;
43841;SDS011;29495;49.970;20.842;2023-12-20T21:17:05;6.35;;;3.40;;
43841;SDS011;29495;49.970;20.842;2023-12-20T21:21:01;5.07;;;2.80;;
43841;SDS011;29495;49.970;20.842;2023-12-20T21:24:14;8.02;;;3.03;;
43841;SDS011;29495;49.970;20.842;2023-12-20T21:27:36;7.28;;;4.18;;
43841;SDS011;29495;49.970;20.842;2023-12-20T21:31:02;8.60;;;4.60;;
43841;SDS011;29495;49.970;20.842;2023-12-20T21:34:51;10.52;;;4.43;;
43841;SDS011;29495;49.970;20.842;2023-12-20T21:42:18;6.80;;;3.70;;
43841;SDS011;29495;49.970;20.842;2023-12-20T21:45:14;5.65;;;3.08;;
43841;SDS011;29495;49.970;20.842;2023-12-20T21:48:21;6.68;;;3.45;;
43841;SDS011;29495;49.970;20.842;2023-12-20T21:51:16;6.70;;;3.70;;
43841;SDS011;29495;49.970;20.842;2023-12-20T21:54:36;12.68;;;4.63;;
43841;SDS011;29495;49.970;20.842;2023-12-20T21:57:02;14.82;;;4.15;;
43841;SDS011;29495;49.970;20.842;2023-12-20T21:59:33;9.13;;;3.92;;
43841;SDS011;29495;49.970;20.842;2023-12-20T22:02:05;8.80;;;4.22;;
43841;SDS011;29495;49.970;20.842;2023-12-20T22:04:46;7.30;;;3.55;;
43841;SDS011;29495;49.970;20.842;2023-12-20T22:07:12;7.85;;;3.58;;
43841;SDS011;29495;49.970;20.842;2023-12-20T22:09:39;5.32;;;3.05;;
43841;SDS011;29495;49.970;20.842;2023-12-20T22:12:05;7.03;;;2.92;;
43841;SDS011;29495;49.970;20.842;2023-12-20T22:14:34;6.53;;;3.60;;
43841;SDS011;29495;49.970;20.842;2023-12-20T22:17:00;7.60;;;3.35;;
43841;SDS011;29495;49.970;20.842;2023-12-20T22:23:07;7.18;;;3.25;;
43841;SDS011;29495;49.970;20.842;2023-12-20T22:26:20;7.45;;;3.45;;
43841;SDS011;29495;49.970;20.842;2023-12-20T22:33:03;6.35;;;2.67;;
43841;SDS011;29495;49.970;20.842;2023-12-20T22:39:46;6.47;;;3.20;;
43841;SDS011;29495;49.970;20.842;2023-12-20T22:42:46;8.80;;;3.45;;
43841;SDS011;29495;49.970;20.842;2023-12-20T22:45:14;7.00;;;3.42;;
43841;SDS011;29495;49.970;20.842;2023-12-20T22:47:41;5.50;;;3.25;;
43841;SDS011;29495;49.970;20.842;2023-12-20T22:50:08;6.00;;;3.13;;
43841;SDS011;29495;49.970;20.842;2023-12-20T22:52:38;6.25;;;3.45;;
43841;SDS011;29495;49.970;20.842;2023-12-20T22:55:15;7.57;;;3.45;;
43841;SDS011;29495;49.970;20.842;2023-12-20T22:57:44;9.20;;;3.80;;
43841;SDS011;29495;49.970;20.842;2023-12-20T23:03:58;5.80;;;3.13;;
43841;SDS011;29495;49.970;20.842;2023-12-20T23:07:18;7.20;;;3.33;;
43841;SDS011;29495;49.970;20.842;2023-12-20T23:10:06;6.70;;;3.28;;
43841;SDS011;29495;49.970;20.842;2023-12-20T23:12:40;7.18;;;3.65;;
43841;SDS011;29495;49.970;20.842;2023-12-20T23:17:38;6.47;;;3.20;;
43841;SDS011;29495;49.970;20.842;2023-12-20T23:20:35;6.07;;;3.25;;
43841;SDS011;29495;49.970;20.842;2023-12-20T23:23:14;5.40;;;2.35;;
43841;SDS011;29495;49.970;20.842;2023-12-20T23:26:08;6.18;;;2.63;;
43841;SDS011;29495;49.970;20.842;2023-12-20T23:28:34;5.32;;;2.67;;
43841;SDS011;29495;49.970;20.842;2023-12-20T23:31:01;4.65;;;2.50;;
43841;SDS011;29495;49.970;20.842;2023-12-20T23:33:35;5.85;;;3.15;;
43841;SDS011;29495;49.970;20.842;2023-12-20T23:36:42;7.35;;;3.30;;
43841;SDS011;29495;49.970;20.842;2023-12-20T23:39:28;8.73;;;3.00;;
43841;SDS011;29495;49.970;20.842;2023-12-20T23:42:24;4.93;;;2.72;;
43841;SDS011;29495;49.970;20.842;2023-12-20T23:44:55;6.50;;;3.00;;
43841;SDS011;29495;49.970;20.842;2023-12-20T23:47:27;5.20;;;2.85;;
43841;SDS011;29495;49.970;20.842;2023-12-20T23:50:06;4.15;;;2.22;;
43841;SDS011;29495;49.970;20.842;2023-12-20T23:52:36;4.82;;;2.80;;
43841;SDS011;29495;49.970;20.842;2023-12-20T23:55:10;4.80;;;2.28;;
43841;SDS011;29495;49.970;20.842;2023-12-20T23:57:41;5.93;;;3.00;;
